»·PEaware :: CGMWT KSEA-KPDX

CGMWT :: KSEA-KPDX

FLIGHT INFORMATION

Flight Status: Arrived
Operator: Unknown
More flights by this operator :: More flights under this callsign
Pilot: Konrad W. (32064)
Aircraft: Diamond DA-40
(DA40)
More flights by this aircraft type
Origin: KSEA Seattle-Tacoma Intl
United States
Destination: KPDX Portland Intl
United States
More flights between these airports :: More routes between these airports
Route: +
File this flight plan on PilotEdge
Remarks:
Altitude:
(Current/Filed)
0ft
Speed:
(Current/Filed)
0kts
Departed: 24-Oct-20 07:57 PM
Arrived: 24-Oct-20 09:05 PM
Distance/Time
Traveled:
112nm/1:07
Distance/Time
To Go:
Arrived

Flight Plot

Page will automatically refresh every two minutes.

Flight plan parsing failed; only flown route is shown


Map Options




Map Legend


Flown Route
Filed Route
Departure Airport
Arrival Airport
Navaid (VOR, NDB)
Fix

Horizontal Profiles

Position Reports

Time Latitude Longitude Heading Altitude Ground
Speed
24-Oct-20 19:50 47.436506 -122.303858 181 374ft 0kts
24-Oct-20 19:51 47.436506 -122.303858 181 374ft 0kts
24-Oct-20 19:52 47.436493 -122.303861 195 374ft 1kts
24-Oct-20 19:53 47.432852 -122.305620 180 362ft 27kts
24-Oct-20 19:54 47.431189 -122.306980 307 360ft 0kts
24-Oct-20 19:55 47.431264 -122.307144 302 360ft 10kts
24-Oct-20 19:56 47.440372 -122.308018 358 380ft 81kts
24-Oct-20 19:57 47.465802 -122.307801 2 868ft 99kts
24-Oct-20 19:58 47.478639 -122.273382 105 1348ft 112kts
24-Oct-20 19:59 47.450683 -122.265164 181 1850ft 111kts
24-Oct-20 20:00 47.419733 -122.264782 180 2351ft 109kts
24-Oct-20 20:01 47.389765 -122.264216 180 2853ft 107kts
24-Oct-20 20:02 47.359928 -122.263612 180 3348ft 108kts
24-Oct-20 20:03 47.329901 -122.263046 180 3845ft 108kts
24-Oct-20 20:04 47.298194 -122.262395 180 4081ft 125kts
24-Oct-20 20:05 47.269864 -122.288482 222 4085ft 124kts
24-Oct-20 20:06 47.252613 -122.331072 260 4085ft 124kts
24-Oct-20 20:07 47.237806 -122.372668 222 4083ft 120kts
24-Oct-20 20:08 47.212745 -122.402002 217 4084ft 119kts
24-Oct-20 20:09 47.187415 -122.430436 217 4084ft 119kts
24-Oct-20 20:10 47.161039 -122.460063 217 4084ft 119kts
24-Oct-20 20:11 47.131407 -122.480797 194 4084ft 120kts
24-Oct-20 20:12 47.099021 -122.492251 194 4084ft 120kts
24-Oct-20 20:13 47.066562 -122.503584 194 4084ft 120kts
24-Oct-20 20:14 47.034050 -122.514953 194 4084ft 120kts
24-Oct-20 20:15 47.001693 -122.526275 194 4084ft 120kts
24-Oct-20 20:16 46.969270 -122.537607 194 4084ft 120kts
24-Oct-20 20:17 46.936822 -122.548936 194 4085ft 120kts
24-Oct-20 20:18 46.910981 -122.577480 228 4084ft 119kts
24-Oct-20 20:19 46.889521 -122.614764 230 4084ft 119kts
24-Oct-20 20:20 46.868152 -122.652073 229 4085ft 119kts
24-Oct-20 20:21 46.846791 -122.689277 229 4082ft 119kts
24-Oct-20 20:22 46.825417 -122.726403 229 4085ft 120kts
24-Oct-20 20:23 46.803889 -122.763758 229 4082ft 120kts
24-Oct-20 20:24 46.782425 -122.800941 229 4083ft 119kts
24-Oct-20 20:25 46.760840 -122.838272 229 4066ft 120kts
24-Oct-20 20:26 46.739361 -122.875377 229 4067ft 119kts
24-Oct-20 20:27 46.717835 -122.912505 229 4066ft 119kts
24-Oct-20 20:28 46.696356 -122.949520 229 4065ft 120kts
24-Oct-20 20:29 46.672350 -122.980287 178 4072ft 119kts
24-Oct-20 20:30 46.638808 -122.977752 175 4063ft 120kts
24-Oct-20 20:31 46.605454 -122.973146 175 4066ft 120kts
24-Oct-20 20:32 46.572018 -122.968571 175 4067ft 121kts
24-Oct-20 20:33 46.538529 -122.964029 175 4066ft 120kts
24-Oct-20 20:34 46.505174 -122.959521 175 4066ft 121kts
24-Oct-20 20:35 46.471736 -122.955004 175 4066ft 120kts
24-Oct-20 20:36 46.438257 -122.950498 175 4065ft 121kts
24-Oct-20 20:37 46.404729 -122.945986 175 4066ft 120kts
24-Oct-20 20:38 46.371279 -122.941484 175 4064ft 120kts
24-Oct-20 20:39 46.337864 -122.937011 175 4065ft 120kts
24-Oct-20 20:40 46.304657 -122.932555 175 4066ft 120kts
24-Oct-20 20:41 46.271298 -122.928094 175 4066ft 120kts
24-Oct-20 20:42 46.237812 -122.923616 175 4068ft 120kts
24-Oct-20 20:43 46.204433 -122.919166 175 4067ft 120kts
24-Oct-20 20:44 46.171135 -122.914726 175 4065ft 120kts
24-Oct-20 20:45 46.139451 -122.900014 153 4066ft 121kts
24-Oct-20 20:46 46.109694 -122.876424 152 4068ft 123kts
24-Oct-20 20:47 46.079630 -122.852536 152 4065ft 123kts
24-Oct-20 20:48 46.049710 -122.828818 152 4069ft 122kts
24-Oct-20 20:49 46.019923 -122.805273 152 4066ft 121kts
24-Oct-20 20:50 45.990183 -122.781796 152 4067ft 123kts
24-Oct-20 20:51 45.960551 -122.758421 152 4141ft 122kts
24-Oct-20 20:52 45.927289 -122.750764 180 3992ft 129kts
24-Oct-20 20:53 45.890677 -122.750148 180 3577ft 131kts
24-Oct-20 20:54 45.854149 -122.745427 173 3123ft 133kts
24-Oct-20 20:55 45.817382 -122.738983 173 2623ft 133kts
24-Oct-20 20:56 45.780939 -122.732584 173 2175ft 128kts
24-Oct-20 20:58 45.747387 -122.726559 173 2140ft 118kts
24-Oct-20 20:59 45.714975 -122.720681 173 2140ft 117kts
24-Oct-20 21:00 45.682253 -122.717070 176 2066ft 121kts
24-Oct-20 21:01 45.649349 -122.709484 152 1869ft 124kts
24-Oct-20 21:02 45.626815 -122.673981 125 1568ft 119kts
24-Oct-20 21:03 45.611666 -122.636944 119 971ft 85kts
24-Oct-20 21:04 45.599501 -122.607579 119 265ft 83kts
24-Oct-20 21:05 45.592067 -122.590418 278 38ft 10kts
24-Oct-20 21:06 45.592113 -122.591106 265 38ft 0kts
24-Oct-20 21:07 45.591728 -122.590943 114 37ft 15kts
24-Oct-20 21:08 45.586105 -122.576405 118 35ft 24kts
24-Oct-20 21:09 45.584336 -122.577115 291 31ft 0kts
24-Oct-20 21:10 45.584336 -122.577115 291 31ft 0kts
24-Oct-20 21:11 45.584336 -122.577115 291 31ft 0kts

Navigation Log

Ident Type
Flight plan parsing failed, navigation log unavailable